createdAt,value
2023-03-17T00:04:31.045Z,7
2023-03-17T00:09:27.564Z,7.1
2023-03-17T00:14:24.112Z,6.9
2023-03-17T00:20:34.870Z,6.8
2023-03-17T00:25:31.262Z,6.5
2023-03-17T00:30:27.829Z,6.7
2023-03-17T00:36:38.649Z,6.8
2023-03-17T00:41:35.083Z,6.6
2023-03-17T00:46:31.568Z,6.6
2023-03-17T00:51:28.180Z,6.5
2023-03-17T00:56:24.734Z,6.5
2023-03-17T01:02:35.296Z,6.5
2023-03-17T01:07:31.816Z,6.6
2023-03-17T01:12:28.424Z,6.8
2023-03-17T01:17:24.936Z,6.8
2023-03-17T01:23:35.632Z,6.8
2023-03-17T01:28:32.098Z,6.7
2023-03-17T01:33:28.611Z,6.7
2023-03-17T01:38:25.182Z,6.5
2023-03-17T01:44:35.869Z,6.5
2023-03-17T01:49:32.416Z,6.4
2023-03-17T01:54:28.874Z,6.3
2023-03-17T01:59:25.422Z,6.3
2023-03-17T02:05:36.079Z,6.4
2023-03-17T02:10:32.929Z,6.5
2023-03-17T02:15:29.127Z,6.5
2023-03-17T02:20:25.754Z,6.5
2023-03-17T02:26:36.339Z,6.4
2023-03-17T02:31:32.890Z,6.2
2023-03-17T02:36:29.465Z,6.2
2023-03-17T02:47:36.605Z,6.1
2023-03-17T02:52:33.177Z,6
2023-03-17T02:57:29.709Z,5.9
2023-03-17T03:08:36.851Z,6
2023-03-17T03:13:33.389Z,5.9
2023-03-17T03:18:29.930Z,5.9
2023-03-17T03:23:26.449Z,5.7
2023-03-17T03:29:37.135Z,5.8
2023-03-17T03:34:33.726Z,5.9
2023-03-17T03:39:30.164Z,5.8
2023-03-17T03:44:26.759Z,5.9
2023-03-17T03:50:37.404Z,5.9
2023-03-17T03:55:33.924Z,5.9
2023-03-17T04:00:30.706Z,5.9
2023-03-17T04:05:26.994Z,5.9
2023-03-17T04:11:37.633Z,5.8
2023-03-17T04:16:34.247Z,5.8
2023-03-17T04:21:30.725Z,5.7
2023-03-17T04:26:27.241Z,5.6
2023-03-17T04:31:23.896Z,5.7
2023-03-17T04:37:34.775Z,5.5
2023-03-17T04:42:30.957Z,5.3
2023-03-17T04:47:27.513Z,5.6
2023-03-17T04:52:24.080Z,5.5
2023-03-17T04:58:34.712Z,5.4
2023-03-17T05:03:31.225Z,5.3
2023-03-17T05:08:27.774Z,5.6
2023-03-17T05:13:24.306Z,5.5
2023-03-17T05:19:35.008Z,5.5
2023-03-17T05:24:31.467Z,5.4
2023-03-17T05:29:28.111Z,5.6
2023-03-17T05:34:24.656Z,5.6
2023-03-17T05:40:35.294Z,5.8
2023-03-17T05:45:31.757Z,5.7
2023-03-17T05:50:28.421Z,5.8
2023-03-17T05:55:24.840Z,5.8
2023-03-17T06:01:35.478Z,5.9
2023-03-17T06:06:32.005Z,5.9
2023-03-17T06:11:28.643Z,5.9
2023-03-17T06:16:25.133Z,6
2023-03-17T06:22:35.776Z,6.2
2023-03-17T06:27:32.404Z,6.4
2023-03-17T06:32:28.893Z,6.6
2023-03-17T06:37:25.379Z,6.8
2023-03-17T06:43:36.008Z,7
2023-03-17T06:48:32.607Z,7.2
2023-03-17T06:53:29.089Z,7.3
2023-03-17T06:58:25.721Z,7.7
2023-03-17T07:04:36.288Z,7.8
2023-03-17T07:09:32.834Z,8.1
2023-03-17T07:14:29.331Z,8.2
2023-03-17T07:19:25.872Z,8.5
2023-03-17T07:25:36.520Z,8.6
2023-03-17T07:30:33.073Z,8.8
2023-03-17T07:35:30.038Z,8.9
2023-03-17T07:40:26.146Z,9
2023-03-17T07:46:36.791Z,9.1
2023-03-17T07:51:33.425Z,9.3
2023-03-17T07:56:29.841Z,9.6
2023-03-17T08:01:26.443Z,9.7
2023-03-17T08:07:37.125Z,10
2023-03-17T08:12:33.676Z,10.2
2023-03-17T08:17:30.099Z,10.1
2023-03-17T08:22:26.715Z,10.1
2023-03-17T08:28:37.343Z,10.6
2023-03-17T08:33:33.917Z,10.8
2023-03-17T08:38:30.380Z,11.1
2023-03-17T08:43:26.918Z,11.7
2023-03-17T08:49:37.600Z,12
2023-03-17T08:54:34.209Z,11.9
2023-03-17T08:59:30.634Z,12.1
2023-03-17T09:04:27.185Z,12.7
2023-03-17T09:09:23.864Z,12.9
2023-03-17T09:15:34.547Z,13.1
2023-03-17T09:20:31.169Z,13
2023-03-17T09:25:27.427Z,13.4
2023-03-17T09:31:38.252Z,13.3
2023-03-17T09:36:34.719Z,13.6
2023-03-17T09:41:31.149Z,13.3
2023-03-17T09:45:13.671Z,13.8
2023-03-17T09:46:27.771Z,14.1
2023-03-17T09:52:38.382Z,14
2023-03-17T09:57:34.966Z,14.1
2023-03-17T10:02:31.521Z,14.1
2023-03-17T10:07:27.979Z,14.7
2023-03-17T10:12:24.509Z,14.8
2023-03-17T10:18:35.191Z,14.6
2023-03-17T10:28:28.328Z,14.9
2023-03-17T10:33:24.801Z,15.2
2023-03-17T10:39:35.518Z,15.6
2023-03-17T10:44:32.010Z,15
2023-03-17T10:49:28.482Z,15.4
2023-03-17T10:54:25.014Z,15.6
2023-03-17T11:00:35.747Z,15.9
2023-03-17T11:05:32.244Z,15.9
2023-03-17T11:10:29.332Z,16
2023-03-17T11:15:25.308Z,16.3
2023-03-17T11:21:35.954Z,16.2
2023-03-17T11:26:32.553Z,16.2
2023-03-17T11:31:29.144Z,16.2
2023-03-17T11:36:25.567Z,16.3
2023-03-17T11:42:36.227Z,16.4
2023-03-17T11:47:32.793Z,16.8
2023-03-17T11:52:29.342Z,16.5
2023-03-17T11:57:25.805Z,17.4
2023-03-17T12:03:36.520Z,17.6
2023-03-17T12:08:33.013Z,17.4
2023-03-17T12:13:29.578Z,17.7
2023-03-17T12:18:26.095Z,17.4
2023-03-17T12:24:36.743Z,18.3
2023-03-17T12:29:33.372Z,18
2023-03-17T12:34:29.799Z,18
2023-03-17T12:39:26.363Z,18.3
2023-03-17T12:45:37.023Z,18.7
2023-03-17T12:50:33.610Z,18.2
2023-03-17T12:55:30.413Z,18.5
2023-03-17T13:00:26.612Z,19.3
2023-03-17T13:06:37.263Z,19.7
2023-03-17T13:11:33.872Z,20.3
2023-03-17T13:16:30.399Z,20.1
2023-03-17T13:21:26.884Z,21
2023-03-17T13:27:37.551Z,21.3
2023-03-17T13:32:34.221Z,19.8
2023-03-17T13:37:30.586Z,18.7
2023-03-17T13:42:27.132Z,19.5
2023-03-17T13:48:37.979Z,20.8
2023-03-17T13:53:34.412Z,21.4
2023-03-17T13:58:30.853Z,21.3
2023-03-17T14:03:27.508Z,20.9
2023-03-17T14:09:38.106Z,21.5
2023-03-17T14:14:34.588Z,19.9
2023-03-17T14:19:31.149Z,18.1
2023-03-17T14:24:27.674Z,17.9
2023-03-17T14:29:24.205Z,17.4
2023-03-17T14:35:35.305Z,17.3
2023-03-17T14:40:31.389Z,17.1
2023-03-17T14:45:27.941Z,16.5
2023-03-17T14:50:24.548Z,16.1
2023-03-17T14:56:35.247Z,15.9
2023-03-17T15:06:28.201Z,15.4
2023-03-17T15:11:24.806Z,15.3
2023-03-17T15:17:35.467Z,15.1
2023-03-17T15:22:31.921Z,15.1
2023-03-17T15:27:28.469Z,14.9
2023-03-17T15:38:35.731Z,14.7
2023-03-17T15:43:32.188Z,14.7
2023-03-17T15:48:28.714Z,14.5
2023-03-17T15:53:25.365Z,14.4
2023-03-17T15:59:35.972Z,14.2
2023-03-17T16:04:32.583Z,14
2023-03-17T16:09:29.050Z,13.9
2023-03-17T16:14:25.639Z,13.9
2023-03-17T16:20:36.272Z,13.8
2023-03-17T16:25:32.709Z,13.7
2023-03-17T16:30:29.891Z,13.5
2023-03-17T16:35:25.852Z,13.6
2023-03-17T16:41:36.525Z,13.4
2023-03-17T16:46:34.828Z,13.4
2023-03-17T16:51:29.630Z,13.4
2023-03-17T16:56:26.119Z,13.3
2023-03-17T17:02:36.826Z,13.1
2023-03-17T17:07:33.270Z,13
2023-03-17T17:12:29.829Z,13.1
2023-03-17T17:17:26.399Z,12.9
2023-03-17T17:23:37.082Z,12.9
2023-03-17T17:28:33.544Z,12.9
2023-03-17T17:33:30.090Z,13
2023-03-17T17:38:26.670Z,12.9
2023-03-17T17:44:37.309Z,12.7
2023-03-17T17:49:33.883Z,12.8
2023-03-17T17:54:30.311Z,12.9
2023-03-17T17:59:26.852Z,12.7
2023-03-17T18:05:37.524Z,12.6
2023-03-17T18:10:34.581Z,12.6
2023-03-17T18:15:30.586Z,12.7
2023-03-17T18:20:27.246Z,12.6
2023-03-17T18:26:37.774Z,12.5
2023-03-17T18:31:34.439Z,12.5
2023-03-17T18:36:30.829Z,12.2
2023-03-17T18:41:27.477Z,11.9
2023-03-17T18:47:38.051Z,11.5
2023-03-17T18:52:34.623Z,11.6
2023-03-17T18:57:31.137Z,11.4
2023-03-17T19:02:27.712Z,11.6
2023-03-17T19:07:24.219Z,11.7
2023-03-17T19:13:34.953Z,11.6
2023-03-17T19:18:31.352Z,11.4
2023-03-17T19:23:27.914Z,11.4
2023-03-17T19:28:24.493Z,11.3
2023-03-17T19:34:35.210Z,11.2
2023-03-17T19:39:31.631Z,11.2
2023-03-17T19:44:28.188Z,11.1
2023-03-17T19:49:24.748Z,11
2023-03-17T19:55:35.411Z,11
2023-03-17T20:00:32.226Z,10.9
2023-03-17T20:05:28.525Z,11
2023-03-17T20:16:36.031Z,11
2023-03-17T20:21:32.155Z,11.2
2023-03-17T20:26:28.761Z,11.2
2023-03-17T20:31:25.339Z,11.1
2023-03-17T20:37:36.038Z,10.9
2023-03-17T20:42:32.461Z,10.9
2023-03-17T20:47:29.016Z,10.9
2023-03-17T20:52:25.558Z,10.7
2023-03-17T20:58:36.234Z,10.7
2023-03-17T21:03:32.714Z,10.9
2023-03-17T21:08:29.236Z,10.9
2023-03-17T21:13:25.797Z,10.8
2023-03-17T21:19:36.481Z,10.8
2023-03-17T21:24:32.982Z,10.8
2023-03-17T21:29:29.592Z,10.7
2023-03-17T21:40:36.808Z,10.6
2023-03-17T21:45:33.317Z,10.5
2023-03-17T21:50:29.831Z,10.6
2023-03-17T21:55:26.378Z,10.6
2023-03-17T22:01:37.193Z,10.4
2023-03-17T22:06:33.504Z,10.2
2023-03-17T22:11:30.043Z,10.3
2023-03-17T22:16:26.636Z,10
2023-03-17T22:22:37.271Z,10.2
2023-03-17T22:27:33.760Z,10.1
2023-03-17T22:32:30.369Z,10
2023-03-17T22:37:26.941Z,9.9
2023-03-17T22:43:37.555Z,10
2023-03-17T22:48:34.028Z,10.1
2023-03-17T22:53:30.552Z,10
2023-03-17T22:58:27.101Z,10.1
2023-03-17T23:04:37.895Z,10
2023-03-17T23:09:34.349Z,10
2023-03-17T23:14:30.843Z,9.9
2023-03-17T23:19:27.430Z,9.9
2023-03-17T23:25:38.119Z,10.1
2023-03-17T23:30:35.176Z,10
2023-03-17T23:35:31.130Z,9.8
2023-03-17T23:40:27.649Z,9.8
2023-03-17T23:46:38.338Z,9.9
2023-03-17T23:51:34.834Z,9.9
2023-03-17T23:56:31.377Z,9.8
